Blue Bay — V2CE6 — position and weather

sailwx.info

Track history (hours):
 
Tides and Currents Weather Stations Pressure Air Temp Water Temp Dewpoint Dewpoint Depression Visibility Wind Speed Wind Dir Waves Ship Positions

Blue Bay

Last reported at 2016-Dec-05 01:33 UTC. Time now 2016-Dec-05 02:26 UTC.
Position N 53°54' E 009°09'.

Length 89 m; draft 5.7 m.

Type: Cargo ship. MMSI: 304519000.

Date/timePositionNaut miles runAvg speedWind from/ knotsBaromVisibWave heightAir tempDewpointWater temp
2016-Dec-05 01:33N 53°54' E 009°09'2 1.7
2016-Dec-05 00:33N 53°53' E 009°06'9 9.2
2016-Dec-04 23:34N 53°50' E 008°51'9 8.5
2016-Dec-04 22:33N 53°55' E 008°40'9 8.7
2016-Dec-04 21:33N 53°59' E 008°26'9 9.2
2016-Dec-04 20:33N 53°59' E 008°10'10 9.6
2016-Dec-04 19:33N 53°57' E 007°54'9 9.1
2016-Dec-04 18:33N 53°56' E 007°39'76 9.4
2016-Dec-04 10:31N 53°36' E 005°36'1010.6
2016-Dec-04 09:34N 53°33' E 005°19'1110.7
2016-Dec-04 08:33N 53°29' E 005°03'1110.9
2016-Dec-04 07:33N 53°24' E 004°46'1110.8
2016-Dec-04 06:31N 53°15' E 004°36'1011.0
2016-Dec-04 05:33N 53°06' E 004°27'1010.3
2016-Dec-04 04:33N 52°57' E 004°19'10 9.7
2016-Dec-04 03:33N 52°48' E 004°11'9 9.3
2016-Dec-04 02:33N 52°40' E 004°03'9 9.0
2016-Dec-04 01:33N 52°32' E 003°56'9 8.8
2016-Dec-04 00:33N 52°24' E 003°52'9 8.6
2016-Dec-03 23:33N 52°15' E 003°52'9 8.7
2016-Dec-03 22:33N 52°07' E 003°55'7 7.5
2016-Dec-03 21:34N 52°00' E 004°01'1211.9
2016-Dec-03 20:33N 51°54' E 004°17'8 8.3
2016-Dec-03 19:33N 51°50' E 004°29'6 6.0
2016-Dec-03 18:33N 51°48' E 004°38'0 0.0
2016-Dec-03 17:33N 51°48' E 004°38'0 0.0
2016-Dec-03 16:33N 51°48' E 004°38'0 0.0
2016-Dec-03 15:33N 51°48' E 004°38'0 0.0
2016-Dec-03 14:33N 51°48' E 004°38'0 0.0
2016-Dec-03 13:33N 51°48' E 004°38'0 0.0
2016-Dec-03 12:33N 51°48' E 004°38'0 0.0
2016-Dec-03 11:33N 51°48' E 004°38'0 0.1
2016-Dec-03 10:34N 51°48' E 004°38'0 0.0
2016-Dec-03 09:33N 51°48' E 004°38'0 0.0
2016-Dec-03 08:34N 51°48' E 004°38'0 0.0
2016-Dec-03 07:33N 51°48' E 004°38'0 0.0
2016-Dec-03 06:33N 51°48' E 004°38'0 0.0
2016-Dec-03 05:33N 51°48' E 004°38'0 0.0
2016-Dec-03 04:34N 51°48' E 004°38'0 0.0
2016-Dec-03 03:33N 51°48' E 004°38'0 0.0
2016-Dec-03 02:33N 51°48' E 004°38'0 0.0
2016-Dec-03 01:33N 51°48' E 004°38'0 0.0
2016-Dec-03 00:34N 51°48' E 004°38'0 0.0
2016-Dec-02 23:34N 51°48' E 004°38'0 0.0
2016-Dec-02 22:33N 51°48' E 004°38'0 0.0
2016-Dec-02 21:34N 51°48' E 004°38'0 0.0
2016-Dec-02 20:34N 51°48' E 004°38'0 0.0
2016-Dec-02 19:34N 51°48' E 004°38'0 0.0
2016-Dec-02 18:34N 51°48' E 004°38'0 0.0
2016-Dec-02 17:34N 51°48' E 004°38'0 0.0
2016-Dec-02 16:33N 51°48' E 004°38'0 0.0
2016-Dec-02 15:34N 51°48' E 004°38'0 0.0
2016-Dec-02 14:34N 51°48' E 004°38'0 0.0
2016-Dec-02 13:34N 51°48' E 004°38'0 0.0
2016-Dec-02 12:34N 51°48' E 004°38'0 0.0
2016-Dec-02 11:34N 51°48' E 004°38'0 0.0
2016-Dec-02 10:34N 51°48' E 004°38'0 0.0
2016-Dec-02 09:34N 51°48' E 004°38'0 0.0
2016-Dec-02 08:34N 51°48' E 004°38'0 0.0
2016-Dec-02 07:34N 51°48' E 004°38'0 0.0
2016-Dec-02 06:33N 51°48' E 004°38'0 0.0
2016-Dec-02 05:34N 51°48' E 004°38'0 0.0
2016-Dec-02 04:34N 51°48' E 004°38'0 0.0
2016-Dec-02 03:33N 51°48' E 004°38'3 3.3
2016-Dec-02 02:33N 51°49' E 004°34'9 9.0
2016-Dec-02 01:33N 51°52' E 004°20'3 3.1
2016-Dec-02 00:33N 51°53' E 004°25'0 0.0
2016-Dec-01 23:33N 51°53' E 004°25'0 0.0
2016-Dec-01 22:33N 51°53' E 004°25'0 0.0
2016-Dec-01 21:33N 51°53' E 004°25'0 0.0
2016-Dec-01 20:33N 51°53' E 004°25'0 0.0
2016-Dec-01 19:33N 51°53' E 004°25'0 0.0
2016-Dec-01 18:33N 51°53' E 004°25'0 0.0
2016-Dec-01 17:33N 51°53' E 004°25'0 0.0
2016-Dec-01 16:33N 51°53' E 004°25'0 0.0
2016-Dec-01 15:33N 51°53' E 004°25'0 0.0
2016-Dec-01 14:33N 51°53' E 004°25'0 0.0
2016-Dec-01 13:34N 51°53' E 004°25'0 0.0
2016-Dec-01 12:33N 51°53' E 004°25'0 0.0
2016-Dec-01 11:34N 51°53' E 004°25'0 0.0
2016-Dec-01 10:34N 51°53' E 004°25'0 0.0
2016-Dec-01 09:33N 51°53' E 004°25'0 0.0
2016-Dec-01 08:33N 51°53' E 004°25'0 0.0
2016-Dec-01 07:33N 51°53' E 004°25'0 0.0
2016-Dec-01 06:33N 51°53' E 004°25'0 0.0
2016-Dec-01 05:33N 51°53' E 004°25'8 8.0
2016-Dec-01 04:33N 51°56' E 004°13'1110.6
2016-Dec-01 03:33N 52°00' E 003°57'7 7.0
2016-Dec-01 02:33N 51°56' E 003°47'0 0.3
2016-Dec-01 01:33N 51°56' E 003°47'0 0.0
2016-Dec-01 00:34N 51°56' E 003°47'0 0.0
2016-Nov-30 23:33N 51°56' E 003°47'0 0.0
2016-Nov-30 22:33N 51°56' E 003°47'0 0.0
2016-Nov-30 21:33N 51°56' E 003°47'0 0.0
2016-Nov-30 19:33N 51°56' E 003°47'0 0.0
2016-Nov-30 18:33N 51°56' E 003°47'0 0.0
2016-Nov-30 17:33N 51°56' E 003°47'0 0.0
2016-Nov-30 16:33N 51°56' E 003°47'0 0.0
2016-Nov-30 15:33N 51°56' E 003°47'0 0.0
2016-Nov-30 14:33N 51°56' E 003°47'0 0.0
2016-Nov-30 13:33N 51°56' E 003°47'0 0.0
2016-Nov-30 12:33N 51°56' E 003°47'0 0.0
2016-Nov-30 11:33N 51°56' E 003°47'0 0.0
2016-Nov-30 10:33N 51°56' E 003°47'0 0.1
2016-Nov-30 09:33N 51°56' E 003°47'0 0.0
2016-Nov-30 08:33N 51°56' E 003°47'0 0.0
2016-Nov-30 07:33N 51°56' E 003°47'0 0.1
2016-Nov-30 06:33N 51°56' E 003°47'0 0.0
2016-Nov-30 05:33N 51°56' E 003°47'0 0.0
2016-Nov-30 04:33N 51°56' E 003°47'0 0.0
2016-Nov-30 03:33N 51°56' E 003°47'0 0.0
2016-Nov-30 02:33N 51°56' E 003°47'0 0.0
2016-Nov-30 01:33N 51°56' E 003°47'0 0.0
2016-Nov-30 00:33N 51°56' E 003°47'0 0.1
2016-Nov-29 23:33N 51°56' E 003°47'0 0.1
2016-Nov-29 22:33N 51°56' E 003°47'0 0.0
2016-Nov-29 21:33N 51°56' E 003°47'0 0.0
2016-Nov-29 20:33N 51°56' E 003°47'0 0.0
2016-Nov-29 19:33N 51°56' E 003°47'0 0.1
2016-Nov-29 18:33N 51°56' E 003°47'0 0.0
2016-Nov-29 17:33N 51°56' E 003°47'0 0.0
2016-Nov-29 16:33N 51°56' E 003°47'0 0.0
2016-Nov-29 15:33N 51°56' E 003°47'0 0.0
2016-Nov-29 14:33N 51°56' E 003°47'0 0.0
2016-Nov-29 13:33N 51°56' E 003°47'0 0.0
2016-Nov-29 12:33N 51°56' E 003°47'0 0.1
2016-Nov-29 11:33N 51°56' E 003°47'8 8.1
2016-Nov-29 10:33N 52°04' E 003°46'1211.7
2016-Nov-29 09:33N 52°16' E 003°47'1212.1
2016-Nov-29 08:34N 52°28' E 003°50'1211.6
2016-Nov-29 07:33N 52°37' E 004°02'1110.8
2016-Nov-29 06:33N 52°44' E 004°15'8 7.8
2016-Nov-29 05:33N 52°51' E 004°23'6 5.6
2016-Nov-29 04:33N 52°56' E 004°27'5 4.7
2016-Nov-29 03:33N 53°00' E 004°30'5 4.7
2016-Nov-29 02:33N 53°04' E 004°33'6 6.3
2016-Nov-29 01:33N 53°10' E 004°38'8 7.4
2016-Nov-29 00:31N 53°16' E 004°47'7 7.3
2016-Nov-28 23:32N 53°19' E 004°57'7 7.3
2016-Nov-28 22:33N 53°19' E 005°09'9 8.7
2016-Nov-28 21:33N 53°12' E 005°18'5 4.6
2016-Nov-28 20:32N 53°11' E 005°26'0 0.0
2016-Nov-28 19:32N 53°11' E 005°26'0 0.0
2016-Nov-28 18:31N 53°11' E 005°26'0 0.0
2016-Nov-28 17:31N 53°11' E 005°26'0 0.0
2016-Nov-28 16:31N 53°11' E 005°26'0 0.0
2016-Nov-28 15:31N 53°11' E 005°26'0 0.0
2016-Nov-28 14:31N 53°11' E 005°26'0 0.0
2016-Nov-28 13:31N 53°11' E 005°26'0 0.0
2016-Nov-28 12:31N 53°11' E 005°26'0 0.0
2016-Nov-28 11:31N 53°11' E 005°26'0 0.0
2016-Nov-28 10:31N 53°11' E 005°26'0 0.0
2016-Nov-28 09:31N 53°11' E 005°26'0 0.0
2016-Nov-28 08:31N 53°11' E 005°26'0 0.0
2016-Nov-28 07:31N 53°11' E 005°26'0 0.0
2016-Nov-28 06:31N 53°11' E 005°26'0 0.0
2016-Nov-28 05:31N 53°11' E 005°26'0 0.0
2016-Nov-28 04:31N 53°11' E 005°26'0 0.0
2016-Nov-28 03:31N 53°11' E 005°26'0 0.0
2016-Nov-28 02:31N 53°11' E 005°26'0 0.0
2016-Nov-28 01:31N 53°11' E 005°26'0 0.0
2016-Nov-28 00:31N 53°11' E 005°26'0 0.0
2016-Nov-27 23:31N 53°11' E 005°26'0 0.0
2016-Nov-27 22:31N 53°11' E 005°26'0 0.0
2016-Nov-27 21:31N 53°11' E 005°26'0 0.0
2016-Nov-27 20:31N 53°11' E 005°26'0 0.0
2016-Nov-27 19:31N 53°11' E 005°26'0 0.0
2016-Nov-27 18:31N 53°11' E 005°26'0 0.0
2016-Nov-27 17:31N 53°11' E 005°26'0 0.0
2016-Nov-27 16:31N 53°11' E 005°26'0 0.0
2016-Nov-27 15:31N 53°11' E 005°26'0 0.0
2016-Nov-27 14:31N 53°11' E 005°26'0 0.0
2016-Nov-27 13:31N 53°11' E 005°26'0 0.0
2016-Nov-27 12:31N 53°11' E 005°26'0 0.0
2016-Nov-27 11:31N 53°11' E 005°26'0 0.0
2016-Nov-27 10:31N 53°11' E 005°26'0 0.0
2016-Nov-27 09:31N 53°11' E 005°26'0 0.0
2016-Nov-27 08:31N 53°11' E 005°26'0 0.0
2016-Nov-27 07:31N 53°11' E 005°26'0 0.0
2016-Nov-27 06:31N 53°11' E 005°26'0 0.0
2016-Nov-27 05:31N 53°11' E 005°26'0 0.0
2016-Nov-27 04:31N 53°11' E 005°26'0 0.0
2016-Nov-27 03:31N 53°11' E 005°26'0 0.0
2016-Nov-27 02:31N 53°11' E 005°26'0 0.0
2016-Nov-27 01:31N 53°11' E 005°26'0 0.0
2016-Nov-27 00:31N 53°11' E 005°26'0 0.0
2016-Nov-26 23:31N 53°11' E 005°26'0 0.0
2016-Nov-26 22:31N 53°11' E 005°26'0 0.0
2016-Nov-26 21:31N 53°11' E 005°26'0 0.0
2016-Nov-26 20:31N 53°11' E 005°26'0 0.0
2016-Nov-26 19:31N 53°11' E 005°26'0 0.0
2016-Nov-26 18:31N 53°11' E 005°26'0 0.0
2016-Nov-26 17:31N 53°11' E 005°26'0 0.0
2016-Nov-26 16:31N 53°11' E 005°26'0 0.0
2016-Nov-26 15:31N 53°11' E 005°26'0 0.0
2016-Nov-26 14:31N 53°11' E 005°26'0 0.0
2016-Nov-26 13:31N 53°11' E 005°26'0 0.0
2016-Nov-26 12:31N 53°11' E 005°26'0 0.0
2016-Nov-26 11:31N 53°11' E 005°26'0 0.0
2016-Nov-26 10:28N 53°11' E 005°26'0 0.0
2016-Nov-26 09:31N 53°11' E 005°26'0 0.0
2016-Nov-26 08:31N 53°11' E 005°26'0 0.0
2016-Nov-26 07:31N 53°11' E 005°26'0 0.0
2016-Nov-26 06:31N 53°11' E 005°26'0 0.0
2016-Nov-26 05:31N 53°11' E 005°26'0 0.0
2016-Nov-26 04:31N 53°11' E 005°26'0 0.0
2016-Nov-26 03:31N 53°11' E 005°26'0 0.0
2016-Nov-26 02:31N 53°11' E 005°26'0 0.0
2016-Nov-26 01:31N 53°11' E 005°26'0 0.0
2016-Nov-26 00:31N 53°11' E 005°26'0 0.0
2016-Nov-25 23:31N 53°11' E 005°26'0 0.0
2016-Nov-25 22:31N 53°11' E 005°26'0 0.0
2016-Nov-25 21:31N 53°11' E 005°26'0 0.0
2016-Nov-25 20:31N 53°11' E 005°26'0 0.0
2016-Nov-25 19:31N 53°11' E 005°26'0 0.0
2016-Nov-25 18:31N 53°11' E 005°26'0 0.0
2016-Nov-25 17:31N 53°11' E 005°26'0 0.0
2016-Nov-25 16:31N 53°11' E 005°26'0 0.0
2016-Nov-25 15:31N 53°11' E 005°26'0 0.0
2016-Nov-25 14:31N 53°11' E 005°26'0 0.0
2016-Nov-25 13:31N 53°11' E 005°26'0 0.0
2016-Nov-25 12:31N 53°11' E 005°26'0 0.0
2016-Nov-25 11:31N 53°11' E 005°26'0 0.0
2016-Nov-25 10:31N 53°11' E 005°26'0 0.0
2016-Nov-25 09:31N 53°11' E 005°26'0 0.0
2016-Nov-25 08:31N 53°11' E 005°26'0 0.0
2016-Nov-25 07:31N 53°11' E 005°26'0 0.0
2016-Nov-25 06:31N 53°11' E 005°26'0 0.0
2016-Nov-25 05:31N 53°11' E 005°26'0 0.0
2016-Nov-25 04:31N 53°11' E 005°26'0 0.0
2016-Nov-25 03:31N 53°11' E 005°26'0 0.0
2016-Nov-25 02:31N 53°11' E 005°26'  
Track history (hours):
 
Tides and Currents Weather Stations Pressure Air Temp Water Temp Dewpoint Dewpoint Depression Visibility Wind Speed Wind Dir Waves Ship Positions

Blue Bay

Last reported at 2016-Dec-05 01:33 UTC. Time now 2016-Dec-05 02:26 UTC.
Position N 53°54' E 009°09'.

Length 89 m; draft 5.7 m.

Type: Cargo ship. MMSI: 304519000.

Date/timePositionNaut miles runAvg speedWind from/ knotsBaromVisibWave heightAir tempDewpointWater temp
2016-Dec-05 01:33N 53°54' E 009°09'2 1.7
2016-Dec-05 00:33N 53°53' E 009°06'9 9.2
2016-Dec-04 23:34N 53°50' E 008°51'9 8.5
2016-Dec-04 22:33N 53°55' E 008°40'9 8.7
2016-Dec-04 21:33N 53°59' E 008°26'9 9.2
2016-Dec-04 20:33N 53°59' E 008°10'10 9.6
2016-Dec-04 19:33N 53°57' E 007°54'9 9.1
2016-Dec-04 18:33N 53°56' E 007°39'76 9.4
2016-Dec-04 10:31N 53°36' E 005°36'1010.6
2016-Dec-04 09:34N 53°33' E 005°19'1110.7
2016-Dec-04 08:33N 53°29' E 005°03'1110.9
2016-Dec-04 07:33N 53°24' E 004°46'1110.8
2016-Dec-04 06:31N 53°15' E 004°36'1011.0
2016-Dec-04 05:33N 53°06' E 004°27'1010.3
2016-Dec-04 04:33N 52°57' E 004°19'10 9.7
2016-Dec-04 03:33N 52°48' E 004°11'9 9.3
2016-Dec-04 02:33N 52°40' E 004°03'9 9.0
2016-Dec-04 01:33N 52°32' E 003°56'9 8.8
2016-Dec-04 00:33N 52°24' E 003°52'9 8.6
2016-Dec-03 23:33N 52°15' E 003°52'9 8.7
2016-Dec-03 22:33N 52°07' E 003°55'7 7.5
2016-Dec-03 21:34N 52°00' E 004°01'1211.9
2016-Dec-03 20:33N 51°54' E 004°17'8 8.3
2016-Dec-03 19:33N 51°50' E 004°29'6 6.0
2016-Dec-03 18:33N 51°48' E 004°38'0 0.0
2016-Dec-03 17:33N 51°48' E 004°38'0 0.0
2016-Dec-03 16:33N 51°48' E 004°38'0 0.0
2016-Dec-03 15:33N 51°48' E 004°38'0 0.0
2016-Dec-03 14:33N 51°48' E 004°38'0 0.0
2016-Dec-03 13:33N 51°48' E 004°38'0 0.0
2016-Dec-03 12:33N 51°48' E 004°38'0 0.0
2016-Dec-03 11:33N 51°48' E 004°38'0 0.1
2016-Dec-03 10:34N 51°48' E 004°38'0 0.0
2016-Dec-03 09:33N 51°48' E 004°38'0 0.0
2016-Dec-03 08:34N 51°48' E 004°38'0 0.0
2016-Dec-03 07:33N 51°48' E 004°38'0 0.0
2016-Dec-03 06:33N 51°48' E 004°38'0 0.0
2016-Dec-03 05:33N 51°48' E 004°38'0 0.0
2016-Dec-03 04:34N 51°48' E 004°38'0 0.0
2016-Dec-03 03:33N 51°48' E 004°38'0 0.0
2016-Dec-03 02:33N 51°48' E 004°38'0 0.0
2016-Dec-03 01:33N 51°48' E 004°38'0 0.0
2016-Dec-03 00:34N 51°48' E 004°38'0 0.0
2016-Dec-02 23:34N 51°48' E 004°38'0 0.0
2016-Dec-02 22:33N 51°48' E 004°38'0 0.0
2016-Dec-02 21:34N 51°48' E 004°38'0 0.0
2016-Dec-02 20:34N 51°48' E 004°38'0 0.0
2016-Dec-02 19:34N 51°48' E 004°38'0 0.0
2016-Dec-02 18:34N 51°48' E 004°38'0 0.0
2016-Dec-02 17:34N 51°48' E 004°38'0 0.0
2016-Dec-02 16:33N 51°48' E 004°38'0 0.0
2016-Dec-02 15:34N 51°48' E 004°38'0 0.0
2016-Dec-02 14:34N 51°48' E 004°38'0 0.0
2016-Dec-02 13:34N 51°48' E 004°38'0 0.0
2016-Dec-02 12:34N 51°48' E 004°38'0 0.0
2016-Dec-02 11:34N 51°48' E 004°38'0 0.0
2016-Dec-02 10:34N 51°48' E 004°38'0 0.0
2016-Dec-02 09:34N 51°48' E 004°38'0 0.0
2016-Dec-02 08:34N 51°48' E 004°38'0 0.0
2016-Dec-02 07:34N 51°48' E 004°38'0 0.0
2016-Dec-02 06:33N 51°48' E 004°38'0 0.0
2016-Dec-02 05:34N 51°48' E 004°38'0 0.0
2016-Dec-02 04:34N 51°48' E 004°38'0 0.0
2016-Dec-02 03:33N 51°48' E 004°38'3 3.3
2016-Dec-02 02:33N 51°49' E 004°34'9 9.0
2016-Dec-02 01:33N 51°52' E 004°20'3 3.1
2016-Dec-02 00:33N 51°53' E 004°25'0 0.0
2016-Dec-01 23:33N 51°53' E 004°25'0 0.0
2016-Dec-01 22:33N 51°53' E 004°25'0 0.0
2016-Dec-01 21:33N 51°53' E 004°25'0 0.0
2016-Dec-01 20:33N 51°53' E 004°25'0 0.0
2016-Dec-01 19:33N 51°53' E 004°25'0 0.0
2016-Dec-01 18:33N 51°53' E 004°25'0 0.0
2016-Dec-01 17:33N 51°53' E 004°25'0 0.0
2016-Dec-01 16:33N 51°53' E 004°25'0 0.0
2016-Dec-01 15:33N 51°53' E 004°25'0 0.0
2016-Dec-01 14:33N 51°53' E 004°25'0 0.0
2016-Dec-01 13:34N 51°53' E 004°25'0 0.0
2016-Dec-01 12:33N 51°53' E 004°25'0 0.0
2016-Dec-01 11:34N 51°53' E 004°25'0 0.0
2016-Dec-01 10:34N 51°53' E 004°25'0 0.0
2016-Dec-01 09:33N 51°53' E 004°25'0 0.0
2016-Dec-01 08:33N 51°53' E 004°25'0 0.0
2016-Dec-01 07:33N 51°53' E 004°25'0 0.0
2016-Dec-01 06:33N 51°53' E 004°25'0 0.0
2016-Dec-01 05:33N 51°53' E 004°25'8 8.0
2016-Dec-01 04:33N 51°56' E 004°13'1110.6
2016-Dec-01 03:33N 52°00' E 003°57'7 7.0
2016-Dec-01 02:33N 51°56' E 003°47'0 0.3
2016-Dec-01 01:33N 51°56' E 003°47'0 0.0
2016-Dec-01 00:34N 51°56' E 003°47'0 0.0
2016-Nov-30 23:33N 51°56' E 003°47'0 0.0
2016-Nov-30 22:33N 51°56' E 003°47'0 0.0
2016-Nov-30 21:33N 51°56' E 003°47'0 0.0
2016-Nov-30 19:33N 51°56' E 003°47'0 0.0
2016-Nov-30 18:33N 51°56' E 003°47'0 0.0
2016-Nov-30 17:33N 51°56' E 003°47'0 0.0
2016-Nov-30 16:33N 51°56' E 003°47'0 0.0
2016-Nov-30 15:33N 51°56' E 003°47'0 0.0
2016-Nov-30 14:33N 51°56' E 003°47'0 0.0
2016-Nov-30 13:33N 51°56' E 003°47'0 0.0
2016-Nov-30 12:33N 51°56' E 003°47'0 0.0
2016-Nov-30 11:33N 51°56' E 003°47'0 0.0
2016-Nov-30 10:33N 51°56' E 003°47'0 0.1
2016-Nov-30 09:33N 51°56' E 003°47'0 0.0
2016-Nov-30 08:33N 51°56' E 003°47'0 0.0
2016-Nov-30 07:33N 51°56' E 003°47'0 0.1
2016-Nov-30 06:33N 51°56' E 003°47'0 0.0
2016-Nov-30 05:33N 51°56' E 003°47'0 0.0
2016-Nov-30 04:33N 51°56' E 003°47'0 0.0
2016-Nov-30 03:33N 51°56' E 003°47'0 0.0
2016-Nov-30 02:33N 51°56' E 003°47'0 0.0
2016-Nov-30 01:33N 51°56' E 003°47'0 0.0
2016-Nov-30 00:33N 51°56' E 003°47'0 0.1
2016-Nov-29 23:33N 51°56' E 003°47'0 0.1
2016-Nov-29 22:33N 51°56' E 003°47'0 0.0
2016-Nov-29 21:33N 51°56' E 003°47'0 0.0
2016-Nov-29 20:33N 51°56' E 003°47'0 0.0
2016-Nov-29 19:33N 51°56' E 003°47'0 0.1
2016-Nov-29 18:33N 51°56' E 003°47'0 0.0
2016-Nov-29 17:33N 51°56' E 003°47'0 0.0
2016-Nov-29 16:33N 51°56' E 003°47'0 0.0
2016-Nov-29 15:33N 51°56' E 003°47'0 0.0
2016-Nov-29 14:33N 51°56' E 003°47'0 0.0
2016-Nov-29 13:33N 51°56' E 003°47'0 0.0
2016-Nov-29 12:33N 51°56' E 003°47'0 0.1
2016-Nov-29 11:33N 51°56' E 003°47'8 8.1
2016-Nov-29 10:33N 52°04' E 003°46'1211.7
2016-Nov-29 09:33N 52°16' E 003°47'1212.1
2016-Nov-29 08:34N 52°28' E 003°50'1211.6
2016-Nov-29 07:33N 52°37' E 004°02'1110.8
2016-Nov-29 06:33N 52°44' E 004°15'8 7.8
2016-Nov-29 05:33N 52°51' E 004°23'6 5.6
2016-Nov-29 04:33N 52°56' E 004°27'5 4.7
2016-Nov-29 03:33N 53°00' E 004°30'5 4.7
2016-Nov-29 02:33N 53°04' E 004°33'6 6.3
2016-Nov-29 01:33N 53°10' E 004°38'8 7.4
2016-Nov-29 00:31N 53°16' E 004°47'7 7.3
2016-Nov-28 23:32N 53°19' E 004°57'7 7.3
2016-Nov-28 22:33N 53°19' E 005°09'9 8.7
2016-Nov-28 21:33N 53°12' E 005°18'5 4.6
2016-Nov-28 20:32N 53°11' E 005°26'0 0.0
2016-Nov-28 19:32N 53°11' E 005°26'0 0.0
2016-Nov-28 18:31N 53°11' E 005°26'0 0.0
2016-Nov-28 17:31N 53°11' E 005°26'0 0.0
2016-Nov-28 16:31N 53°11' E 005°26'0 0.0
2016-Nov-28 15:31N 53°11' E 005°26'0 0.0
2016-Nov-28 14:31N 53°11' E 005°26'0 0.0
2016-Nov-28 13:31N 53°11' E 005°26'0 0.0
2016-Nov-28 12:31N 53°11' E 005°26'0 0.0
2016-Nov-28 11:31N 53°11' E 005°26'0 0.0
2016-Nov-28 10:31N 53°11' E 005°26'0 0.0
2016-Nov-28 09:31N 53°11' E 005°26'0 0.0
2016-Nov-28 08:31N 53°11' E 005°26'0 0.0
2016-Nov-28 07:31N 53°11' E 005°26'0 0.0
2016-Nov-28 06:31N 53°11' E 005°26'0 0.0
2016-Nov-28 05:31N 53°11' E 005°26'0 0.0
2016-Nov-28 04:31N 53°11' E 005°26'0 0.0
2016-Nov-28 03:31N 53°11' E 005°26'0 0.0
2016-Nov-28 02:31N 53°11' E 005°26'0 0.0
2016-Nov-28 01:31N 53°11' E 005°26'0 0.0
2016-Nov-28 00:31N 53°11' E 005°26'0 0.0
2016-Nov-27 23:31N 53°11' E 005°26'0 0.0
2016-Nov-27 22:31N 53°11' E 005°26'0 0.0
2016-Nov-27 21:31N 53°11' E 005°26'0 0.0
2016-Nov-27 20:31N 53°11' E 005°26'0 0.0
2016-Nov-27 19:31N 53°11' E 005°26'0 0.0
2016-Nov-27 18:31N 53°11' E 005°26'0 0.0
2016-Nov-27 17:31N 53°11' E 005°26'0 0.0
2016-Nov-27 16:31N 53°11' E 005°26'0 0.0
2016-Nov-27 15:31N 53°11' E 005°26'0 0.0
2016-Nov-27 14:31N 53°11' E 005°26'0 0.0
2016-Nov-27 13:31N 53°11' E 005°26'0 0.0
2016-Nov-27 12:31N 53°11' E 005°26'0 0.0
2016-Nov-27 11:31N 53°11' E 005°26'0 0.0
2016-Nov-27 10:31N 53°11' E 005°26'0 0.0
2016-Nov-27 09:31N 53°11' E 005°26'0 0.0
2016-Nov-27 08:31N 53°11' E 005°26'0 0.0
2016-Nov-27 07:31N 53°11' E 005°26'0 0.0
2016-Nov-27 06:31N 53°11' E 005°26'0 0.0
2016-Nov-27 05:31N 53°11' E 005°26'0 0.0
2016-Nov-27 04:31N 53°11' E 005°26'0 0.0
2016-Nov-27 03:31N 53°11' E 005°26'0 0.0
2016-Nov-27 02:31N 53°11' E 005°26'0 0.0
2016-Nov-27 01:31N 53°11' E 005°26'0 0.0
2016-Nov-27 00:31N 53°11' E 005°26'0 0.0
2016-Nov-26 23:31N 53°11' E 005°26'0 0.0
2016-Nov-26 22:31N 53°11' E 005°26'0 0.0
2016-Nov-26 21:31N 53°11' E 005°26'0 0.0
2016-Nov-26 20:31N 53°11' E 005°26'0 0.0
2016-Nov-26 19:31N 53°11' E 005°26'0 0.0
2016-Nov-26 18:31N 53°11' E 005°26'0 0.0
2016-Nov-26 17:31N 53°11' E 005°26'0 0.0
2016-Nov-26 16:31N 53°11' E 005°26'0 0.0
2016-Nov-26 15:31N 53°11' E 005°26'0 0.0
2016-Nov-26 14:31N 53°11' E 005°26'0 0.0
2016-Nov-26 13:31N 53°11' E 005°26'0 0.0
2016-Nov-26 12:31N 53°11' E 005°26'0 0.0
2016-Nov-26 11:31N 53°11' E 005°26'0 0.0
2016-Nov-26 10:28N 53°11' E 005°26'0 0.0
2016-Nov-26 09:31N 53°11' E 005°26'0 0.0
2016-Nov-26 08:31N 53°11' E 005°26'0 0.0
2016-Nov-26 07:31N 53°11' E 005°26'0 0.0
2016-Nov-26 06:31N 53°11' E 005°26'0 0.0
2016-Nov-26 05:31N 53°11' E 005°26'0 0.0
2016-Nov-26 04:31N 53°11' E 005°26'0 0.0
2016-Nov-26 03:31N 53°11' E 005°26'0 0.0
2016-Nov-26 02:31N 53°11' E 005°26'0 0.0
2016-Nov-26 01:31N 53°11' E 005°26'0 0.0
2016-Nov-26 00:31N 53°11' E 005°26'0 0.0
2016-Nov-25 23:31N 53°11' E 005°26'0 0.0
2016-Nov-25 22:31N 53°11' E 005°26'0 0.0
2016-Nov-25 21:31N 53°11' E 005°26'0 0.0
2016-Nov-25 20:31N 53°11' E 005°26'0 0.0
2016-Nov-25 19:31N 53°11' E 005°26'0 0.0
2016-Nov-25 18:31N 53°11' E 005°26'0 0.0
2016-Nov-25 17:31N 53°11' E 005°26'0 0.0
2016-Nov-25 16:31N 53°11' E 005°26'0 0.0
2016-Nov-25 15:31N 53°11' E 005°26'0 0.0
2016-Nov-25 14:31N 53°11' E 005°26'0 0.0
2016-Nov-25 13:31N 53°11' E 005°26'0 0.0
2016-Nov-25 12:31N 53°11' E 005°26'0 0.0
2016-Nov-25 11:31N 53°11' E 005°26'0 0.0
2016-Nov-25 10:31N 53°11' E 005°26'0 0.0
2016-Nov-25 09:31N 53°11' E 005°26'0 0.0
2016-Nov-25 08:31N 53°11' E 005°26'0 0.0
2016-Nov-25 07:31N 53°11' E 005°26'0 0.0
2016-Nov-25 06:31N 53°11' E 005°26'0 0.0
2016-Nov-25 05:31N 53°11' E 005°26'0 0.0
2016-Nov-25 04:31N 53°11' E 005°26'0 0.0
2016-Nov-25 03:31N 53°11' E 005°26'0 0.0
2016-Nov-25 02:31N 53°11' E 005°26'  

Dump ship's entire track history